Time;durP1;ratioP1;P1;durP2;ratioP2;P2;SDS_P1;SDS_P2;PMS_P1;PMS_P2;Temp;Humidity;BMP_temperature;BMP_pressure;BME280_temperature;BME280_humidity;BME280_pressure;Samples;Min_cycle;Max_cycle;Signal;HPM_P1;HPM_P2
2024/01/10 00:01:59;;;;;;;17.23;11.15;;;-2.80;99.90;;;;;;5093444;28;20477;-81
2024/01/10 00:04:25;;;;;;;20.87;13.70;;;-2.80;99.90;;;;;;5093772;28;20090;-80
2024/01/10 00:06:50;;;;;;;18.17;13.23;;;-2.80;99.90;;;;;;5092591;28;20060;-80
2024/01/10 00:09:16;;;;;;;19.47;12.63;;;-2.80;99.90;;;;;;5093679;28;20088;-80
2024/01/10 00:11:42;;;;;;;18.37;11.43;;;-2.80;99.90;;;;;;5093211;28;20120;-80
2024/01/10 00:14:09;;;;;;;17.80;11.93;;;-2.70;99.90;;;;;;5091887;28;20043;-80
2024/01/10 00:16:35;;;;;;;18.60;12.32;;;-2.70;99.90;;;;;;5091146;28;20055;-80
2024/01/10 00:19:00;;;;;;;17.67;11.00;;;-2.70;99.90;;;;;;5091170;28;20043;-80
2024/01/10 00:21:26;;;;;;;16.37;11.63;;;-2.70;99.90;;;;;;5091302;28;20169;-80
2024/01/10 00:23:52;;;;;;;18.38;11.75;;;-2.80;99.90;;;;;;5091047;28;20043;-80
2024/01/10 00:26:18;;;;;;;18.20;12.30;;;-2.70;99.90;;;;;;5090170;28;20047;-80
2024/01/10 00:28:45;;;;;;;16.13;11.33;;;-2.80;99.90;;;;;;5091544;28;20493;-80
2024/01/10 00:31:14;;;;;;;16.95;11.75;;;-2.80;99.90;;;;;;5093042;28;20071;-79
2024/01/10 00:33:40;;;;;;;20.90;13.02;;;-2.80;99.90;;;;;;5093381;28;20044;-79
2024/01/10 00:36:06;;;;;;;17.50;12.10;;;-2.90;99.90;;;;;;5093084;28;20047;-79
2024/01/10 00:38:32;;;;;;;18.00;12.90;;;-2.80;99.90;;;;;;5093170;28;20060;-80
2024/01/10 00:40:58;;;;;;;18.53;12.97;;;-2.90;99.90;;;;;;5092941;28;20105;-80
2024/01/10 00:43:24;;;;;;;19.33;13.65;;;-2.80;99.90;;;;;;5092046;28;20087;-80
2024/01/10 00:45:50;;;;;;;19.03;12.87;;;-2.90;99.90;;;;;;5092802;28;20075;-80
2024/01/10 00:48:17;;;;;;;19.47;13.40;;;-2.80;99.90;;;;;;5093451;28;20113;-80
2024/01/10 00:50:44;;;;;;;20.95;13.73;;;-2.80;99.90;;;;;;5093352;28;20072;-80
2024/01/10 00:53:10;;;;;;;22.25;13.43;;;-2.90;99.90;;;;;;5092878;28;20048;-80
2024/01/10 00:55:35;;;;;;;18.88;14.00;;;-2.90;99.90;;;;;;5096633;28;20051;-80
2024/01/10 00:58:01;;;;;;;21.70;14.40;;;-2.90;99.90;;;;;;5095985;28;20048;-80
2024/01/10 01:00:27;;;;;;;21.80;14.57;;;-3.00;99.90;;;;;;5097074;28;20052;-79
2024/01/10 01:02:53;;;;;;;21.83;13.90;;;-3.00;99.90;;;;;;5097167;28;20044;-79
2024/01/10 01:05:18;;;;;;;21.90;14.50;;;-3.00;99.90;;;;;;5097145;28;20050;-80
2024/01/10 01:07:44;;;;;;;24.77;15.53;;;-3.10;99.90;;;;;;5096049;28;20055;-80
2024/01/10 01:10:10;;;;;;;23.23;14.77;;;-3.00;99.90;;;;;;5096791;28;20489;-80
2024/01/10 01:12:36;;;;;;;20.67;14.43;;;-3.00;99.90;;;;;;5096881;28;20044;-81
2024/01/10 01:15:02;;;;;;;20.23;15.23;;;-3.00;99.90;;;;;;5096434;28;20111;-80
2024/01/10 01:17:28;;;;;;;21.35;14.00;;;-3.00;99.90;;;;;;5095822;28;20047;-80
2024/01/10 01:19:54;;;;;;;19.57;13.93;;;-3.00;99.90;;;;;;5096534;28;20048;-80
2024/01/10 01:22:20;;;;;;;19.65;14.40;;;-3.10;99.90;;;;;;5097100;28;20409;-80
2024/01/10 01:24:45;;;;;;;20.10;14.50;;;-3.10;99.90;;;;;;5096658;28;20127;-79
2024/01/10 01:27:11;;;;;;;20.23;14.53;;;-3.10;99.90;;;;;;5095491;28;20127;-80
2024/01/10 01:29:37;;;;;;;18.90;13.27;;;-3.20;99.90;;;;;;5096552;28;20405;-80
2024/01/10 01:32:03;;;;;;;21.10;14.80;;;-3.20;99.90;;;;;;5096472;28;20044;-80
2024/01/10 01:34:28;;;;;;;21.17;14.93;;;-3.20;99.90;;;;;;5096526;28;20090;-80
2024/01/10 01:36:54;;;;;;;25.00;14.70;;;-3.20;99.90;;;;;;5096305;28;20044;-80
2024/01/10 01:39:20;;;;;;;21.97;14.00;;;-3.20;99.90;;;;;;5095344;28;20054;-80
2024/01/10 01:41:45;;;;;;;20.20;14.47;;;-3.20;99.90;;;;;;5095358;28;20051;-80
2024/01/10 01:44:11;;;;;;;21.13;15.27;;;-3.20;99.90;;;;;;5096056;28;20572;-79
2024/01/10 01:46:37;;;;;;;22.27;15.20;;;-3.20;99.90;;;;;;5096597;28;20047;-80
2024/01/10 01:49:04;;;;;;;22.13;15.27;;;-3.20;99.90;;;;;;5096063;28;20410;-80
2024/01/10 01:51:31;;;;;;;26.15;16.92;;;-3.20;99.90;;;;;;5096225;28;20086;-80
2024/01/10 01:53:58;;;;;;;23.55;16.02;;;-3.20;99.90;;;;;;5095860;28;20052;-80
2024/01/10 01:56:24;;;;;;;21.38;15.18;;;-3.20;99.90;;;;;;5095034;28;20048;-80
2024/01/10 01:58:54;;;;;;;26.15;16.58;;;-3.20;99.90;;;;;;5096145;28;20181;-80
2024/01/10 02:01:22;;;;;;;23.40;16.00;;;-3.10;99.90;;;;;;5095994;28;20040;-80
2024/01/10 02:03:48;;;;;;;22.13;15.50;;;-3.10;99.90;;;;;;5096134;28;20040;-80
2024/01/10 02:06:14;;;;;;;23.30;16.63;;;-3.20;99.90;;;;;;5094404;28;20130;-79
2024/01/10 02:08:39;;;;;;;22.23;16.83;;;-3.20;99.90;;;;;;5095851;28;20401;-79
2024/01/10 02:11:06;;;;;;;22.33;16.23;;;-3.20;99.90;;;;;;5095186;28;20036;-79
2024/01/10 02:13:35;;;;;;;23.02;16.35;;;-3.10;99.90;;;;;;5093668;28;20127;-79
2024/01/10 02:16:01;;;;;;;24.42;16.55;;;-3.20;99.90;;;;;;5092544;28;20044;-80
2024/01/10 02:18:27;;;;;;;24.48;16.52;;;-3.20;99.90;;;;;;5093492;28;20040;-80
2024/01/10 02:20:52;;;;;;;22.73;15.57;;;-3.10;99.90;;;;;;5093499;28;20117;-80
2024/01/10 02:23:18;;;;;;;20.53;14.73;;;-3.10;99.90;;;;;;5092261;28;20533;-80
2024/01/10 02:25:44;;;;;;;24.17;15.93;;;-3.20;99.90;;;;;;5093689;28;20044;-79
2024/01/10 02:28:10;;;;;;;23.88;15.70;;;-3.10;99.90;;;;;;5094040;28;20494;-80
2024/01/10 02:30:36;;;;;;;21.45;16.42;;;-3.20;99.90;;;;;;5095523;28;20039;-79
2024/01/10 02:33:02;;;;;;;25.95;16.45;;;-3.10;99.90;;;;;;5095254;28;20603;-80
2024/01/10 02:35:27;;;;;;;22.73;16.10;;;-3.10;99.90;;;;;;5095493;28;20134;-79
2024/01/10 02:37:54;;;;;;;20.97;14.10;;;-3.10;99.90;;;;;;5095346;28;20043;-79
2024/01/10 02:40:20;;;;;;;21.30;14.73;;;-3.10;99.90;;;;;;5095109;28;20664;-79
2024/01/10 02:42:46;;;;;;;20.92;14.85;;;-3.10;99.90;;;;;;5094433;28;20497;-80
2024/01/10 02:45:12;;;;;;;21.83;15.17;;;-3.00;99.90;;;;;;5095078;28;20052;-80
2024/01/10 02:47:38;;;;;;;22.23;15.20;;;-3.00;99.90;;;;;;5095171;28;20333;-80
2024/01/10 02:50:05;;;;;;;22.43;14.97;;;-2.90;99.90;;;;;;5095118;28;20409;-80
2024/01/10 02:52:31;;;;;;;21.35;14.30;;;-3.00;99.90;;;;;;5095013;28;20112;-80
2024/01/10 02:54:57;;;;;;;18.90;14.25;;;-3.00;99.90;;;;;;5094774;28;20482;-80
2024/01/10 02:57:23;;;;;;;20.17;14.57;;;-3.00;99.90;;;;;;5094850;28;20088;-80
2024/01/10 02:59:49;;;;;;;24.60;15.00;;;-2.90;99.90;;;;;;5094965;28;20048;-80
2024/01/10 03:02:14;;;;;;;19.33;13.63;;;-2.90;99.90;;;;;;5094012;28;20082;-80
2024/01/10 03:04:41;;;;;;;21.20;13.70;;;-2.90;99.90;;;;;;5094722;28;20040;-80
2024/01/10 03:07:06;;;;;;;22.38;15.70;;;-2.90;99.90;;;;;;5093538;28;20397;-80
2024/01/10 03:09:32;;;;;;;22.13;14.47;;;-3.00;99.90;;;;;;5093665;28;20043;-80
2024/01/10 03:11:58;;;;;;;18.57;13.97;;;-3.00;99.90;;;;;;5094646;28;20139;-80
2024/01/10 03:14:23;;;;;;;21.40;13.33;;;-3.00;99.90;;;;;;5094660;28;20040;-80
2024/01/10 03:16:49;;;;;;;17.90;12.53;;;-3.00;99.90;;;;;;5094562;28;20432;-80
2024/01/10 03:19:15;;;;;;;19.93;13.10;;;-2.90;99.90;;;;;;5094222;28;20135;-80
2024/01/10 03:21:41;;;;;;;17.50;12.53;;;-2.90;99.90;;;;;;5093515;28;20048;-80
2024/01/10 03:24:07;;;;;;;19.70;12.93;;;-2.80;99.90;;;;;;5094080;28;20565;-80
2024/01/10 03:26:33;;;;;;;16.02;11.48;;;-2.80;99.90;;;;;;5094473;28;20136;-80
2024/01/10 03:28:58;;;;;;;20.07;12.57;;;-2.80;99.90;;;;;;5094553;28;20079;-80
2024/01/10 03:31:24;;;;;;;19.90;13.53;;;-2.80;99.90;;;;;;5092818;28;20542;-80
2024/01/10 03:33:50;;;;;;;20.92;12.93;;;-2.90;99.90;;;;;;5094285;28;20482;-80
2024/01/10 03:36:18;;;;;;;19.30;13.30;;;-2.90;99.90;;;;;;5094039;28;20123;-81
2024/01/10 03:38:45;;;;;;;19.90;13.43;;;-2.90;99.90;;;;;;5094001;28;20489;-81
2024/01/10 03:41:18;;;;;;;19.17;13.20;;;-2.90;99.90;;;;;;5094018;28;20044;-80
2024/01/10 03:43:44;;;;;;;20.02;13.93;;;-2.90;99.90;;;;;;5093872;28;20486;-81
2024/01/10 03:46:11;;;;;;;21.90;14.75;;;-2.90;99.90;;;;;;5093852;28;20055;-80
2024/01/10 03:48:47;;;;;;;21.27;13.85;;;-2.90;99.90;;;;;;5093664;28;20060;-81
2024/01/10 03:51:17;;;;;;;22.67;15.18;;;-2.90;99.90;;;;;;5093722;28;20513;-80
2024/01/10 03:53:43;;;;;;;21.17;14.60;;;-2.90;99.90;;;;;;5094177;28;20565;-80
2024/01/10 03:56:10;;;;;;;27.10;15.38;;;-3.00;99.90;;;;;;5094072;28;20048;-80
2024/01/10 03:58:35;;;;;;;22.67;14.63;;;-2.90;99.90;;;;;;5093922;28;20052;-80
2024/01/10 04:01:06;;;;;;;23.00;15.53;;;-3.00;99.90;;;;;;5093864;28;20039;-80
2024/01/10 04:03:32;;;;;;;20.83;14.90;;;-3.00;99.90;;;;;;5093551;28;20064;-80
2024/01/10 04:05:58;;;;;;;21.73;14.80;;;-3.00;99.90;;;;;;5093559;28;20050;-80
2024/01/10 04:08:24;;;;;;;21.97;15.17;;;-3.00;99.90;;;;;;5093264;28;20464;-80
2024/01/10 04:10:50;;;;;;;20.43;14.83;;;-3.00;99.90;;;;;;5093654;28;20044;-80
2024/01/10 04:13:15;;;;;;;23.03;15.67;;;-3.10;99.90;;;;;;5093198;28;20109;-80
2024/01/10 04:15:41;;;;;;;21.33;15.00;;;-3.10;99.90;;;;;;5093509;28;20123;-80
2024/01/10 04:18:07;;;;;;;20.57;15.23;;;-3.00;99.90;;;;;;5093526;28;20052;-81
2024/01/10 04:20:33;;;;;;;21.92;15.98;;;-3.20;99.90;;;;;;5092392;28;20763;-81
2024/01/10 04:22:59;;;;;;;23.70;16.23;;;-3.20;99.90;;;;;;5093555;28;20055;-82
2024/01/10 04:25:24;;;;;;;23.57;15.03;;;-3.10;99.90;;;;;;5092110;28;20047;-81
2024/01/10 04:27:50;;;;;;;23.90;15.93;;;-3.10;99.90;;;;;;5093423;28;20106;-81
2024/01/10 04:30:16;;;;;;;24.05;16.08;;;-3.20;99.90;;;;;;5092441;28;20109;-81
2024/01/10 04:32:42;;;;;;;25.30;16.60;;;-3.10;99.90;;;;;;5093215;28;20055;-82
2024/01/10 04:35:08;;;;;;;23.37;16.83;;;-3.20;99.90;;;;;;5091850;28;20477;-81
2024/01/10 04:37:33;;;;;;;22.70;16.03;;;-3.10;99.90;;;;;;5093073;28;20040;-81
2024/01/10 04:39:59;;;;;;;26.27;16.97;;;-3.20;99.90;;;;;;5093167;28;20044;-81
2024/01/10 04:42:25;;;;;;;22.90;15.50;;;-3.20;99.90;;;;;;5093279;28;20063;-81
2024/01/10 04:44:50;;;;;;;24.70;16.33;;;-3.20;99.90;;;;;;5091976;28;20181;-81
2024/01/10 04:47:16;;;;;;;22.03;15.97;;;-3.20;99.90;;;;;;5093016;28;20063;-81
2024/01/10 04:49:42;;;;;;;22.60;15.23;;;-3.20;99.90;;;;;;5092929;28;20055;-81
2024/01/10 04:52:07;;;;;;;24.27;16.17;;;-3.20;99.90;;;;;;5093182;28;20044;-81
2024/01/10 04:54:34;;;;;;;25.93;15.53;;;-3.20;99.90;;;;;;5091880;28;20466;-81
2024/01/10 04:56:59;;;;;;;22.38;15.98;;;-3.20;99.90;;;;;;5093055;28;20485;-81
2024/01/10 04:59:25;;;;;;;21.17;15.93;;;-3.20;99.90;;;;;;5092812;28;20048;-82
2024/01/10 05:01:51;;;;;;;25.20;14.70;;;-3.30;99.90;;;;;;5093030;28;20044;-81
2024/01/10 05:04:17;;;;;;;22.43;14.50;;;-3.30;99.90;;;;;;5092777;28;20044;-82
2024/01/10 05:06:42;;;;;;;23.40;15.57;;;-3.30;99.90;;;;;;5091851;28;20375;-81
2024/01/10 05:09:09;;;;;;;23.27;14.83;;;-3.30;99.90;;;;;;5093079;28;20048;-81
2024/01/10 05:11:36;;;;;;;24.10;15.40;;;-3.30;99.90;;;;;;5091630;28;20044;-81
2024/01/10 05:14:02;;;;;;;21.65;13.60;;;-3.30;99.90;;;;;;5092996;28;20083;-81
2024/01/10 05:16:28;;;;;;;22.75;14.30;;;-3.30;99.90;;;;;;5092682;28;20052;-81
2024/01/10 05:18:54;;;;;;;23.98;14.77;;;-3.30;99.90;;;;;;5092657;28;20044;-81
2024/01/10 05:21:21;;;;;;;20.27;14.33;;;-3.30;99.90;;;;;;5092921;28;20043;-81
2024/01/10 05:23:46;;;;;;;21.27;15.27;;;-3.30;99.90;;;;;;5092980;28;20059;-81
2024/01/10 05:26:12;;;;;;;23.40;15.10;;;-3.30;99.90;;;;;;5092796;28;20044;-81
2024/01/10 05:28:38;;;;;;;20.07;14.77;;;-3.30;99.90;;;;;;5092353;28;20048;-80
2024/01/10 05:31:04;;;;;;;23.73;15.17;;;-3.40;99.90;;;;;;5092586;28;20046;-80
2024/01/10 05:33:30;;;;;;;22.08;14.25;;;-3.40;99.90;;;;;;5092223;28;20052;-80
2024/01/10 05:35:55;;;;;;;19.60;13.97;;;-3.40;99.90;;;;;;5092830;28;20048;-80
2024/01/10 05:38:21;;;;;;;22.93;14.60;;;-3.40;99.90;;;;;;5092864;28;20080;-80
2024/01/10 05:40:47;;;;;;;18.87;13.73;;;-3.40;99.90;;;;;;5094522;28;20134;-80
2024/01/10 05:43:12;;;;;;;21.00;14.07;;;-3.40;99.90;;;;;;5094133;28;20051;-80
2024/01/10 05:45:38;;;;;;;21.37;13.50;;;-3.40;99.90;;;;;;5094880;28;20113;-81
2024/01/10 05:48:06;;;;;;;19.73;13.23;;;-3.40;99.90;;;;;;5096226;28;20117;-80
2024/01/10 05:50:32;;;;;;;22.23;15.15;;;-3.40;99.90;;;;;;5096245;28;20649;-81
2024/01/10 05:52:57;;;;;;;23.47;14.33;;;-3.40;99.90;;;;;;5096560;28;20048;-82
2024/01/10 05:55:23;;;;;;;19.63;14.13;;;-3.50;99.90;;;;;;5096236;28;20044;-82
2024/01/10 05:57:49;;;;;;;20.77;14.07;;;-3.50;99.90;;;;;;5094799;28;20510;-82
2024/01/10 06:00:16;;;;;;;20.08;14.10;;;-3.40;99.90;;;;;;5095902;28;20040;-81
2024/01/10 06:02:42;;;;;;;21.55;13.18;;;-3.40;99.90;;;;;;5094753;28;20056;-82
2024/01/10 06:05:10;;;;;;;20.75;13.52;;;-3.40;99.90;;;;;;5095435;28;20048;-82
2024/01/10 06:07:37;;;;;;;20.27;13.15;;;-3.40;99.90;;;;;;5094966;28;20431;-82
2024/01/10 06:10:03;;;;;;;22.40;13.00;;;-3.40;99.90;;;;;;5096080;28;20048;-82
2024/01/10 06:12:28;;;;;;;20.88;13.82;;;-3.40;99.90;;;;;;5094792;28;20044;-81
2024/01/10 06:14:54;;;;;;;22.40;13.13;;;-3.40;99.90;;;;;;5094551;28;20036;-81
2024/01/10 06:17:20;;;;;;;20.90;13.68;;;-3.50;99.90;;;;;;5095594;28;20405;-82
2024/01/10 06:19:46;;;;;;;20.43;14.57;;;-3.40;99.90;;;;;;5095588;28;20048;-81
2024/01/10 06:22:12;;;;;;;20.77;13.63;;;-3.40;99.90;;;;;;5094715;28;20286;-82
2024/01/10 06:24:37;;;;;;;20.97;14.30;;;-3.40;99.90;;;;;;5095195;28;20180;-81
2024/01/10 06:27:05;;;;;;;20.43;13.53;;;-3.40;99.90;;;;;;5095652;28;20048;-82
2024/01/10 06:29:31;;;;;;;20.92;14.60;;;-3.40;99.90;;;;;;5095387;28;20071;-81
2024/01/10 06:31:57;;;;;;;21.73;14.10;;;-3.40;99.90;;;;;;5095208;28;20127;-82
2024/01/10 06:34:24;;;;;;;22.65;15.05;;;-3.50;99.90;;;;;;5095452;28;20087;-82
2024/01/10 06:36:50;;;;;;;23.25;14.73;;;-3.40;99.90;;;;;;5095220;28;20047;-82
2024/01/10 06:39:19;;;;;;;23.33;14.65;;;-3.40;99.90;;;;;;5095227;28;20044;-82
2024/01/10 06:41:47;;;;;;;21.90;14.82;;;-3.40;99.90;;;;;;5094946;28;20477;-82
2024/01/10 06:44:12;;;;;;;20.73;14.95;;;-3.40;99.90;;;;;;5095023;28;20047;-82
2024/01/10 06:46:38;;;;;;;22.00;14.27;;;-3.50;99.90;;;;;;5093723;28;20170;-81
2024/01/10 06:49:04;;;;;;;21.30;15.20;;;-3.50;99.90;;;;;;5093556;28;20105;-82
2024/01/10 06:51:30;;;;;;;23.20;15.03;;;-3.50;99.90;;;;;;5094489;28;20059;-81
2024/01/10 06:54:02;;;;;;;22.95;14.23;;;-3.50;99.90;;;;;;5093558;28;20535;-81
2024/01/10 06:56:28;;;;;;;23.90;15.32;;;-3.50;99.90;;;;;;5095070;28;20044;-81
2024/01/10 06:58:54;;;;;;;21.50;14.83;;;-3.50;99.90;;;;;;5094592;28;20055;-81
2024/01/10 07:01:21;;;;;;;23.52;15.13;;;-3.50;99.90;;;;;;5095141;28;20051;-81
2024/01/10 07:03:47;;;;;;;21.77;15.07;;;-3.40;99.90;;;;;;5094742;28;20055;-82
2024/01/10 07:06:14;;;;;;;22.42;14.90;;;-3.50;99.90;;;;;;5094838;28;20055;-82
2024/01/10 07:08:42;;;;;;;20.90;15.43;;;-3.40;99.90;;;;;;5094585;28;20127;-82
2024/01/10 07:11:08;;;;;;;20.60;15.15;;;-3.40;99.90;;;;;;5094768;28;20463;-82
2024/01/10 07:13:34;;;;;;;21.65;15.02;;;-3.50;99.90;;;;;;5094394;28;20409;-82
2024/01/10 07:16:02;;;;;;;20.87;14.70;;;-3.50;99.90;;;;;;5093090;28;20054;-82
2024/01/10 07:18:28;;;;;;;22.13;14.13;;;-3.50;99.90;;;;;;5094590;28;20035;-81
2024/01/10 07:20:54;;;;;;;20.35;14.43;;;-3.50;99.90;;;;;;5093418;28;20090;-81
2024/01/10 07:23:20;;;;;;;23.70;15.20;;;-3.50;99.90;;;;;;5094417;28;20083;-82
2024/01/10 07:25:46;;;;;;;22.20;15.60;;;-3.40;99.90;;;;;;5094310;28;20044;-82
2024/01/10 07:28:11;;;;;;;19.87;14.23;;;-3.40;99.90;;;;;;5093058;28;20056;-82
2024/01/10 07:30:37;;;;;;;23.33;14.83;;;-3.40;99.90;;;;;;5094520;28;20093;-83
2024/01/10 07:33:03;;;;;;;22.30;15.57;;;-3.40;99.90;;;;;;5094322;28;20075;-82
2024/01/10 07:35:30;;;;;;;24.43;16.27;;;-3.40;99.90;;;;;;5094199;28;20402;-83
2024/01/10 07:37:56;;;;;;;22.05;15.77;;;-3.40;99.90;;;;;;5094002;28;20044;-83
2024/01/10 07:40:22;;;;;;;26.38;16.92;;;-3.40;99.90;;;;;;5094089;28;20130;-83
2024/01/10 07:42:48;;;;;;;24.42;17.08;;;-3.40;99.90;;;;;;5093712;28;20052;-82
2024/01/10 07:45:14;;;;;;;27.87;18.53;;;-3.40;99.90;;;;;;5094376;28;20040;-83
2024/01/10 07:47:39;;;;;;;25.67;16.37;;;-3.40;99.90;;;;;;5092960;28;20062;-83
2024/01/10 07:50:10;;;;;;;25.83;17.27;;;-3.30;99.90;;;;;;5093804;28;20036;-83
2024/01/10 07:52:36;;;;;;;23.05;16.08;;;-3.40;99.90;;;;;;5094042;28;20047;-83
2024/01/10 07:55:06;;;;;;;24.38;16.17;;;-3.40;99.90;;;;;;5093592;28;20048;-83
2024/01/10 07:57:36;;;;;;;25.30;17.02;;;-3.40;99.90;;;;;;5093761;28;20052;-83
2024/01/10 08:00:03;;;;;;;26.30;17.65;;;-3.40;99.90;;;;;;5093947;28;20048;-83
2024/01/10 08:02:33;;;;;;;24.52;16.77;;;-3.40;99.90;;;;;;5093819;28;20455;-82
2024/01/10 08:05:00;;;;;;;25.65;17.48;;;-3.40;99.90;;;;;;5092554;28;20044;-81
2024/01/10 08:07:26;;;;;;;23.48;17.13;;;-3.30;99.90;;;;;;5093583;28;20055;-82
2024/01/10 08:09:52;;;;;;;24.35;17.83;;;-3.40;99.90;;;;;;5093174;28;20087;-82
2024/01/10 08:12:18;;;;;;;24.97;17.17;;;-3.30;99.90;;;;;;5093714;28;20087;-82
2024/01/10 08:14:49;;;;;;;23.08;16.55;;;-3.30;99.90;;;;;;5092350;28;20044;-81
2024/01/10 08:17:15;;;;;;;27.10;17.80;;;-3.30;99.90;;;;;;5093649;28;20135;-83
2024/01/10 08:19:41;;;;;;;26.17;16.70;;;-3.40;99.90;;;;;;5092506;28;20127;-86
2024/01/10 08:22:07;;;;;;;26.25;15.35;;;-3.30;99.90;;;;;;5092082;28;20094;-80
2024/01/10 08:24:33;;;;;;;23.15;15.93;;;-3.10;99.90;;;;;;5093311;28;20569;-82
2024/01/10 08:26:59;;;;;;;22.83;14.73;;;-3.20;99.90;;;;;;5093305;28;20130;-83
2024/01/10 08:29:30;;;;;;;22.33;15.73;;;-3.20;99.90;;;;;;5092247;28;20052;-82
2024/01/10 08:31:56;;;;;;;23.27;15.68;;;-3.20;99.90;;;;;;5093181;28;20047;-83
2024/01/10 08:34:22;;;;;;;21.20;15.82;;;-3.20;99.90;;;;;;5093176;28;20417;-78
2024/01/10 08:36:51;;;;;;;21.77;14.75;;;-3.20;99.90;;;;;;5092209;28;20052;-79
2024/01/10 08:39:17;;;;;;;23.35;15.63;;;-3.20;99.90;;;;;;5092158;28;20052;-77
2024/01/10 08:41:44;;;;;;;22.42;15.55;;;-3.20;99.90;;;;;;5093337;28;20481;-76
2024/01/10 08:44:13;;;;;;;22.27;14.75;;;-3.20;99.90;;;;;;5093174;28;20046;-77
2024/01/10 08:46:38;;;;;;;24.05;15.15;;;-3.20;99.90;;;;;;5093173;28;20040;-77
2024/01/10 08:49:05;;;;;;;22.10;15.17;;;-3.10;99.90;;;;;;5092921;28;20134;-77
2024/01/10 08:51:30;;;;;;;22.13;15.07;;;-3.10;99.90;;;;;;5093056;28;20052;-77
2024/01/10 08:53:56;;;;;;;23.83;14.90;;;-2.90;99.90;;;;;;5092620;28;20073;-77
2024/01/10 08:56:23;;;;;;;19.27;12.95;;;-3.00;99.90;;;;;;5093119;28;20052;-76
2024/01/10 08:58:49;;;;;;;19.67;13.57;;;-3.00;99.90;;;;;;5093307;28;20397;-76
2024/01/10 09:01:15;;;;;;;21.43;14.17;;;-2.90;99.90;;;;;;5092943;28;20131;-77
2024/01/10 09:03:40;;;;;;;20.77;13.27;;;-3.00;99.90;;;;;;5092946;28;20074;-76
2024/01/10 09:06:09;;;;;;;22.20;14.17;;;-2.90;99.90;;;;;;5092704;28;20047;-77
2024/01/10 09:08:35;;;;;;;20.63;12.98;;;-2.90;99.90;;;;;;5092756;28;20048;-76
2024/01/10 09:11:01;;;;;;;22.63;14.17;;;-2.90;99.90;;;;;;5092869;28;20127;-76
2024/01/10 09:13:27;;;;;;;20.17;12.85;;;-2.80;99.90;;;;;;5092903;28;20391;-77
2024/01/10 09:15:53;;;;;;;21.98;14.05;;;-2.80;99.90;;;;;;5095141;28;20040;-79
2024/01/10 09:18:18;;;;;;;24.43;13.13;;;-2.80;99.90;;;;;;5096407;28;20520;-77
2024/01/10 09:20:44;;;;;;;21.50;13.10;;;-2.70;99.90;;;;;;5096698;28;20048;-77
2024/01/10 09:23:10;;;;;;;22.23;13.07;;;-2.70;99.90;;;;;;5096779;28;20109;-77
2024/01/10 09:25:36;;;;;;;21.98;13.70;;;-2.70;99.90;;;;;;5097087;28;20044;-77
2024/01/10 09:28:04;;;;;;;24.47;13.80;;;-2.70;99.90;;;;;;5096686;28;20176;-77
2024/01/10 09:30:30;;;;;;;23.95;13.63;;;-2.60;99.90;;;;;;5096723;28;20104;-75
2024/01/10 09:32:56;;;;;;;20.23;13.03;;;-2.60;99.90;;;;;;5096398;28;20040;-80
2024/01/10 09:35:22;;;;;;;26.13;14.15;;;-2.60;99.90;;;;;;5096026;28;20048;-75
2024/01/10 09:37:49;;;;;;;21.15;13.63;;;-2.50;99.90;;;;;;5095845;28;20059;-85
2024/01/10 09:40:16;;;;;;;22.20;13.57;;;-2.50;99.90;;;;;;5095847;28;20063;-76
2024/01/10 09:42:44;;;;;;;23.95;13.77;;;-2.50;99.90;;;;;;5095814;28;20044;-78
2024/01/10 09:45:12;;;;;;;22.40;13.43;;;-2.50;99.90;;;;;;5095656;28;20178;-74
2024/01/10 09:47:42;;;;;;;19.95;12.48;;;-2.40;99.90;;;;;;5095567;28;20432;-78
2024/01/10 09:50:10;;;;;;;21.77;13.35;;;-2.30;99.90;;;;;;5095443;28;20048;-76
2024/01/10 09:53:03;;;;;;;19.70;12.38;;;-2.40;99.90;;;;;;5095736;28;20044;-75
2024/01/10 09:55:33;;;;;;;23.02;12.70;;;-2.30;99.90;;;;;;5094333;28;20036;-75
2024/01/10 09:58:10;;;;;;;21.73;13.07;;;-2.20;99.90;;;;;;5095458;28;20040;-79
2024/01/10 10:00:37;;;;;;;20.67;13.52;;;-2.20;99.90;;;;;;5094038;28;20044;-75
2024/01/10 10:03:07;;;;;;;22.75;14.38;;;-2.20;99.90;;;;;;5095417;28;20080;-74
2024/01/10 10:05:34;;;;;;;22.45;13.60;;;-2.20;99.90;;;;;;5095530;28;20093;-76
2024/01/10 10:08:00;;;;;;;23.23;14.48;;;-2.20;99.90;;;;;;5095578;28;20052;-75
2024/01/10 10:10:27;;;;;;;21.13;13.23;;;-2.10;99.90;;;;;;5095294;28;20492;-75
2024/01/10 10:12:53;;;;;;;20.42;13.45;;;-2.10;99.90;;;;;;5094356;28;20127;-74
2024/01/10 10:15:23;;;;;;;21.30;13.30;;;-2.00;99.90;;;;;;5095149;28;20551;-73
2024/01/10 10:17:50;;;;;;;22.33;14.23;;;-2.00;99.90;;;;;;5094880;28;20048;-75
2024/01/10 10:20:27;;;;;;;21.95;13.85;;;-2.00;99.90;;;;;;5095511;28;20123;-77
2024/01/10 10:23:07;;;;;;;26.60;16.02;;;-2.00;99.90;;;;;;5095742;28;20048;-75
2024/01/10 10:25:42;;;;;;;23.40;14.60;;;-1.90;99.90;;;;;;5095519;28;20157;-77
2024/01/10 10:28:08;;;;;;;22.23;14.02;;;-1.90;99.90;;;;;;5094646;28;20051;-75
2024/01/10 10:30:34;;;;;;;26.33;13.90;;;-1.90;99.90;;;;;;5095554;28;20056;-77
2024/01/10 10:33:02;;;;;;;26.00;13.30;;;-1.90;99.90;;;;;;5095430;28;20055;-78
2024/01/10 10:35:27;;;;;;;23.40;14.00;;;-1.80;99.90;;;;;;5095068;28;20048;-75
2024/01/10 10:37:54;;;;;;;24.30;12.87;;;-1.80;99.90;;;;;;5095239;28;20477;-75
2024/01/10 10:40:20;;;;;;;21.75;12.02;;;-1.70;99.90;;;;;;5095229;28;20122;-74
2024/01/10 10:42:49;;;;;;;22.02;12.80;;;-1.70;99.90;;;;;;5095326;28;20059;-75
2024/01/10 10:45:19;;;;;;;21.48;11.88;;;-1.60;99.90;;;;;;5095101;28;20044;-74
2024/01/10 10:47:50;;;;;;;19.80;10.95;;;-1.60;99.90;;;;;;5095221;28;20420;-75
2024/01/10 10:50:23;;;;;;;22.45;12.52;;;-1.50;99.90;;;;;;5094990;28;20109;-76
2024/01/10 10:52:51;;;;;;;21.50;11.48;;;-1.40;99.90;;;;;;5095386;28;20474;-73
2024/01/10 10:55:18;;;;;;;18.67;10.20;;;-1.40;99.90;;;;;;5093800;28;20044;-75
2024/01/10 10:57:46;;;;;;;18.90;10.43;;;-1.40;99.90;;;;;;5095177;28;20127;-76
2024/01/10 11:00:15;;;;;;;17.70;9.90;;;-1.40;99.90;;;;;;5094673;28;20143;-76
2024/01/10 11:02:42;;;;;;;25.98;12.98;;;-1.30;99.90;;;;;;5094911;28;20417;-72
2024/01/10 11:05:09;;;;;;;17.80;9.75;;;-1.30;99.90;;;;;;5094750;28;20044;-73
2024/01/10 11:07:42;;;;;;;17.52;9.57;;;-1.30;99.90;;;;;;5094818;28;20051;-75
2024/01/10 11:10:20;;;;;;;18.67;9.40;;;-1.20;99.90;;;;;;5094873;28;20131;-73
2024/01/10 11:13:32;;;;;;;17.92;9.68;;;-1.20;99.90;;;;;;5094919;28;20405;-75
2024/01/10 11:16:13;;;;;;;18.88;9.60;;;-1.20;99.90;;;;;;5069417;28;20493;-73
2024/01/10 11:18:59;;;;;;;16.73;9.40;;;-1.10;99.90;;;;;;5094411;28;20048;-74
2024/01/10 11:21:28;;;;;;;;;;;-1.10;99.90;;;;;;5094751;28;20051;-73
2024/01/10 11:23:59;;;;;;;24.45;11.85;;;-1.10;99.90;;;;;;5094270;28;20438;-73
2024/01/10 11:26:26;;;;;;;18.42;10.02;;;-1.10;99.90;;;;;;5094327;28;20394;-73
2024/01/10 11:28:52;;;;;;;18.67;9.43;;;-1.10;99.90;;;;;;5094345;28;20524;-73
2024/01/10 11:31:29;;;;;;;17.00;8.15;;;-1.00;99.90;;;;;;5094125;28;20055;-74
2024/01/10 11:33:56;;;;;;;17.13;8.95;;;-0.90;99.90;;;;;;5093712;28;20040;-75
2024/01/10 11:36:25;;;;;;;18.25;8.88;;;-0.90;99.90;;;;;;5093383;28;20084;-77
2024/01/10 11:38:51;;;;;;;15.20;7.75;;;-0.90;99.90;;;;;;5093685;28;20105;-76
2024/01/10 11:41:40;;;;;;;16.38;9.13;;;-0.80;99.90;;;;;;5094049;28;20047;-76
2024/01/10 11:46:43;;;;;;;14.70;7.85;;;-0.70;99.90;;;;;;5093762;28;20052;-77
2024/01/10 11:49:11;;;;;;;17.30;8.50;;;-0.70;99.90;;;;;;5093544;28;20091;-76
2024/01/10 11:51:37;;;;;;;17.92;9.55;;;-0.70;99.90;;;;;;5093768;28;20109;-77
2024/01/10 11:54:03;;;;;;;13.85;7.75;;;-0.80;99.90;;;;;;5093887;28;20131;-77
2024/01/10 11:56:42;;;;;;;17.17;8.60;;;-0.70;99.90;;;;;;5093513;28;20489;-76
2024/01/10 11:59:13;;;;;;;14.65;7.57;;;-0.70;99.90;;;;;;5093724;28;20094;-79
2024/01/10 12:01:40;;;;;;;16.42;8.13;;;-0.60;99.90;;;;;;5093781;28;20122;-79
2024/01/10 12:04:06;;;;;;;15.32;8.10;;;-0.60;99.90;;;;;;5092627;28;20051;-79
2024/01/10 12:06:34;;;;;;;16.52;8.77;;;-0.50;99.90;;;;;;5093564;28;20091;-79
2024/01/10 12:09:04;;;;;;;14.50;7.45;;;-0.40;99.90;;;;;;5093716;28;20043;-79
2024/01/10 12:11:30;;;;;;;17.02;8.93;;;-0.50;99.90;;;;;;5093360;28;20048;-78
2024/01/10 12:13:57;;;;;;;14.33;8.37;;;-0.50;99.90;;;;;;5093281;28;20036;-78
2024/01/10 12:16:23;;;;;;;16.20;7.63;;;-0.50;99.90;;;;;;5093534;28;20052;-78
2024/01/10 12:18:50;;;;;;;15.25;8.35;;;-0.40;99.90;;;;;;5093370;28;20482;-78
2024/01/10 12:21:17;;;;;;;16.98;9.07;;;-0.40;99.60;;;;;;5093534;28;20573;-78
2024/01/10 12:23:44;;;;;;;20.48;9.82;;;-0.50;99.90;;;;;;5093183;28;20051;-78
2024/01/10 12:26:13;;;;;;;17.88;9.52;;;-0.40;99.90;;;;;;5093626;28;20481;-77
2024/01/10 12:28:40;;;;;;;15.82;7.97;;;-0.40;99.90;;;;;;5093142;28;20357;-78
2024/01/10 12:31:09;;;;;;;15.15;8.15;;;-0.40;99.90;;;;;;5093522;28;20096;-78